createdAt,value
2023-04-27T00:00:19.122Z,99.90
2023-04-27T00:02:46.863Z,99.90
2023-04-27T00:05:14.426Z,99.90
2023-04-27T00:07:41.990Z,99.90
2023-04-27T00:10:09.805Z,99.90
2023-04-27T00:12:37.058Z,99.90
2023-04-27T00:15:05.084Z,99.90
2023-04-27T00:17:32.432Z,99.90
2023-04-27T00:20:00.739Z,99.90
2023-04-27T00:22:27.917Z,99.90
2023-04-27T00:24:54.985Z,99.90
2023-04-27T00:27:22.233Z,99.90
2023-04-27T00:29:49.471Z,99.90
2023-04-27T00:32:16.748Z,99.90
2023-04-27T00:34:43.840Z,99.90
2023-04-27T00:37:13.258Z,99.90
2023-04-27T00:39:40.672Z,99.90
2023-04-27T00:42:11.574Z,99.90
2023-04-27T00:44:39.959Z,99.90
2023-04-27T00:47:07.579Z,99.90
2023-04-27T00:49:34.944Z,99.90
2023-04-27T00:52:03.867Z,99.90
2023-04-27T00:54:32.219Z,99.90
2023-04-27T00:56:59.742Z,99.90
2023-04-27T00:59:27.289Z,99.90
2023-04-27T01:01:56.191Z,99.90
2023-04-27T01:04:23.611Z,99.90
2023-04-27T01:06:52.026Z,99.90
2023-04-27T01:09:20.101Z,99.90
2023-04-27T01:11:50.100Z,99.90
2023-04-27T01:14:17.436Z,99.90
2023-04-27T01:16:44.881Z,99.90
2023-04-27T01:19:12.962Z,99.90
2023-04-27T01:21:40.294Z,99.90
2023-04-27T01:24:08.077Z,99.90
2023-04-27T01:26:37.737Z,99.90
2023-04-27T01:29:04.900Z,99.90
2023-04-27T01:31:32.236Z,99.90
2023-04-27T01:33:59.450Z,99.90
2023-04-27T01:36:27.868Z,99.90
2023-04-27T01:38:56.851Z,99.90
2023-04-27T01:41:24.169Z,99.90
2023-04-27T01:43:51.391Z,99.90
2023-04-27T01:46:18.763Z,99.90
2023-04-27T01:48:46.300Z,99.90
2023-04-27T01:51:13.699Z,99.90
2023-04-27T01:53:42.983Z,99.90
2023-04-27T01:56:10.422Z,99.90
2023-04-27T01:58:37.972Z,99.90
2023-04-27T02:01:05.149Z,99.90
2023-04-27T02:03:32.568Z,99.90
2023-04-27T02:05:59.943Z,99.90
2023-04-27T02:08:27.153Z,99.90
2023-04-27T02:10:54.211Z,99.90
2023-04-27T02:13:21.361Z,99.90
2023-04-27T02:15:48.629Z,99.90
2023-04-27T02:18:16.142Z,99.90
2023-04-27T02:20:43.533Z,99.90
2023-04-27T02:23:11.818Z,99.90
2023-04-27T02:25:39.181Z,99.90
2023-04-27T02:28:06.487Z,99.90
2023-04-27T02:30:34.297Z,99.90
2023-04-27T02:33:01.434Z,99.90
2023-04-27T02:35:28.697Z,99.90
2023-04-27T02:37:55.778Z,99.90
2023-04-27T02:40:23.128Z,99.90
2023-04-27T02:42:51.150Z,99.90
2023-04-27T02:45:18.485Z,99.90
2023-04-27T02:47:45.702Z,99.90
2023-04-27T02:50:14.254Z,99.90
2023-04-27T02:52:41.392Z,99.90
2023-04-27T02:55:09.284Z,99.90
2023-04-27T02:57:36.715Z,99.90
2023-04-27T03:00:07.303Z,99.90
2023-04-27T03:02:34.793Z,99.90
2023-04-27T03:05:02.025Z,99.90
2023-04-27T03:07:29.309Z,99.90
2023-04-27T03:09:56.435Z,99.90
2023-04-27T03:12:23.612Z,99.90
2023-04-27T03:14:51.142Z,99.90
2023-04-27T03:17:18.486Z,99.90
2023-04-27T03:19:49.324Z,99.90
2023-04-27T03:22:16.492Z,99.90
2023-04-27T03:24:43.916Z,99.90
2023-04-27T03:27:11.133Z,99.90
2023-04-27T03:29:38.542Z,99.90
2023-04-27T03:32:06.507Z,99.90
2023-04-27T03:34:34.012Z,99.90
2023-04-27T03:37:02.062Z,99.90
2023-04-27T03:39:29.462Z,99.90
2023-04-27T03:41:57.659Z,99.90
2023-04-27T03:44:24.791Z,99.90
2023-04-27T03:46:52.398Z,99.90
2023-04-27T03:49:19.700Z,99.90
2023-04-27T03:51:47.010Z,99.90
2023-04-27T03:54:15.244Z,99.90
2023-04-27T03:56:42.595Z,99.90
2023-04-27T03:59:09.784Z,99.90
2023-04-27T04:01:39.972Z,99.90
2023-04-27T04:04:07.442Z,99.90
2023-04-27T04:06:34.892Z,99.90
2023-04-27T04:09:03.574Z,99.90
2023-04-27T04:11:31.841Z,99.90
2023-04-27T04:14:01.432Z,99.90
2023-04-27T04:16:29.732Z,99.90
2023-04-27T04:18:57.306Z,99.90
2023-04-27T04:21:24.848Z,99.90
2023-04-27T04:23:52.034Z,99.90
2023-04-27T04:26:20.858Z,99.90
2023-04-27T04:28:48.204Z,99.90
2023-04-27T04:31:17.669Z,99.90
2023-04-27T04:33:45.028Z,99.90
2023-04-27T04:36:12.255Z,99.90
2023-04-27T04:38:39.466Z,99.90
2023-04-27T04:41:07.420Z,99.90
2023-04-27T04:43:34.770Z,99.90
2023-04-27T04:46:05.371Z,99.90
2023-04-27T04:48:32.843Z,99.90
2023-04-27T04:51:00.220Z,99.90
2023-04-27T04:53:27.794Z,99.90
2023-04-27T04:55:56.143Z,99.90
2023-04-27T04:58:23.734Z,99.90
2023-04-27T05:00:51.168Z,99.90
2023-04-27T05:03:18.917Z,99.90
2023-04-27T05:05:48.716Z,99.90
2023-04-27T05:08:17.343Z,99.90
2023-04-27T05:10:51.434Z,99.90
2023-04-27T05:13:18.769Z,99.90
2023-04-27T05:15:46.028Z,99.90
2023-04-27T05:18:13.592Z,99.90
2023-04-27T05:20:41.029Z,99.90
2023-04-27T05:23:08.371Z,99.90
2023-04-27T05:25:41.966Z,99.90
2023-04-27T05:28:10.563Z,99.90
2023-04-27T05:30:37.893Z,99.90
2023-04-27T05:33:06.475Z,99.90
2023-04-27T05:35:34.397Z,99.90
2023-04-27T05:38:02.554Z,99.90
2023-04-27T05:40:30.038Z,99.90
2023-04-27T05:42:57.200Z,99.90
2023-04-27T05:45:25.066Z,99.90
2023-04-27T05:47:52.306Z,99.90
2023-04-27T05:50:19.663Z,99.90
2023-04-27T05:52:46.857Z,99.90
2023-04-27T05:55:13.966Z,99.90
2023-04-27T05:57:41.523Z,99.90
2023-04-27T06:00:11.079Z,99.90
2023-04-27T06:02:41.649Z,99.90
2023-04-27T06:05:09.566Z,99.90
2023-04-27T06:07:37.942Z,99.90
2023-04-27T06:10:06.312Z,99.90
2023-04-27T06:12:33.763Z,99.90
2023-04-27T06:15:03.383Z,99.90
2023-04-27T06:17:30.586Z,99.90
2023-04-27T06:19:57.817Z,99.60
2023-04-27T06:22:25.088Z,98.60
2023-04-27T06:24:52.226Z,97.50
2023-04-27T06:27:19.596Z,96.80
2023-04-27T06:29:47.547Z,95.80
2023-04-27T06:32:14.970Z,95.20
2023-04-27T06:34:42.232Z,94.40
2023-04-27T06:37:09.409Z,93.20
2023-04-27T06:39:37.053Z,93.10
2023-04-27T06:42:04.609Z,92.40
2023-04-27T06:44:32.672Z,90.90
2023-04-27T06:46:59.906Z,90.40
2023-04-27T06:49:27.073Z,90.20
2023-04-27T06:51:54.662Z,87.20
2023-04-27T06:54:22.014Z,86.20
2023-04-27T06:56:49.473Z,85.90
2023-04-27T06:59:16.691Z,84.00
2023-04-27T07:01:44.271Z,83.70
2023-04-27T07:04:11.805Z,82.30
2023-04-27T07:06:39.391Z,80.90
2023-04-27T07:09:16.306Z,78.20
2023-04-27T07:11:53.574Z,77.90
2023-04-27T07:14:20.728Z,75.00
2023-04-27T07:16:47.884Z,74.20
2023-04-27T07:19:15.411Z,72.30
2023-04-27T07:21:42.803Z,67.60
2023-04-27T07:24:10.338Z,68.70
2023-04-27T07:26:37.633Z,66.40
2023-04-27T07:29:14.481Z,63.90
2023-04-27T07:31:41.836Z,64.60
2023-04-27T07:34:09.749Z,63.90
2023-04-27T07:36:37.755Z,66.10
2023-04-27T07:39:06.442Z,63.60
2023-04-27T07:41:34.873Z,65.10
2023-04-27T07:44:02.583Z,65.60
2023-04-27T07:46:31.804Z,67.60
2023-04-27T07:49:00.947Z,61.90
2023-04-27T07:51:28.891Z,63.00
2023-04-27T07:53:56.454Z,58.50
2023-04-27T07:56:23.652Z,56.40
2023-04-27T07:58:51.003Z,55.80
2023-04-27T08:01:20.190Z,55.40
2023-04-27T08:03:48.684Z,50.70
2023-04-27T08:06:16.858Z,49.80
2023-04-27T08:08:44.593Z,47.90
2023-04-27T08:11:12.374Z,48.20
2023-04-27T08:13:39.989Z,44.60
2023-04-27T08:16:07.471Z,45.70
2023-04-27T08:18:34.885Z,43.90
2023-04-27T08:21:02.069Z,42.90
2023-04-27T08:23:31.342Z,43.80
2023-04-27T08:25:58.700Z,46.50
2023-04-27T08:28:26.453Z,43.20
2023-04-27T08:30:53.871Z,45.60
2023-04-27T08:33:21.297Z,47.00
2023-04-27T08:35:48.364Z,45.90
2023-04-27T08:38:15.508Z,43.90
2023-04-27T08:40:44.249Z,45.50
2023-04-27T08:43:11.664Z,48.60
2023-04-27T08:45:47.585Z,48.60
2023-04-27T08:48:15.195Z,45.40
2023-04-27T08:50:45.229Z,48.50
2023-04-27T08:53:22.180Z,48.80
2023-04-27T08:55:50.551Z,52.40
2023-04-27T08:58:17.606Z,55.20
2023-04-27T09:00:46.161Z,53.70
2023-04-27T09:03:29.243Z,51.50
2023-04-27T09:06:05.056Z,55.30
2023-04-27T09:08:52.957Z,57.40
2023-04-27T09:11:38.160Z,54.20
2023-04-27T09:14:23.368Z,55.80
2023-04-27T09:17:00.304Z,54.50
2023-04-27T09:19:29.880Z,59.80
2023-04-27T09:22:07.565Z,55.00
2023-04-27T09:24:35.263Z,56.70
2023-04-27T09:27:03.426Z,56.20
2023-04-27T09:29:36.756Z,55.40
2023-04-27T09:32:17.138Z,60.50
2023-04-27T09:34:44.781Z,60.50
2023-04-27T09:37:12.343Z,61.10
2023-04-27T09:39:40.099Z,59.50
2023-04-27T09:42:08.472Z,60.90
2023-04-27T09:44:36.237Z,59.90
2023-04-27T09:47:03.414Z,55.80
2023-04-27T09:49:33.399Z,57.20
2023-04-27T09:52:01.056Z,56.80
2023-04-27T09:54:32.410Z,56.30
2023-04-27T09:57:31.044Z,61.40
2023-04-27T10:00:12.763Z,60.20
2023-04-27T10:03:03.196Z,57.30
2023-04-27T10:05:57.609Z,60.30
2023-04-27T10:08:25.487Z,61.20
2023-04-27T10:10:53.830Z,57.90
2023-04-27T10:13:23.452Z,56.70
2023-04-27T10:15:52.485Z,56.40
2023-04-27T10:18:29.991Z,59.40
2023-04-27T10:21:09.472Z,58.60
2023-04-27T10:23:46.897Z,57.60
2023-04-27T10:26:21.833Z,66.10
2023-04-27T10:28:58.202Z,61.50
2023-04-27T10:31:33.469Z,57.50
2023-04-27T10:34:09.307Z,58.00
2023-04-27T10:36:38.021Z,65.00
2023-04-27T10:39:32.621Z,60.70
2023-04-27T10:42:08.102Z,62.90
2023-04-27T10:44:36.695Z,60.10
2023-04-27T10:47:20.262Z,61.70
2023-04-27T10:49:47.599Z,59.10
2023-04-27T10:52:15.023Z,63.60
2023-04-27T10:54:46.347Z,61.70
2023-04-27T10:57:13.564Z,58.90
2023-04-27T10:59:50.114Z,57.70
2023-04-27T11:02:18.051Z,62.60
2023-04-27T11:04:45.240Z,65.90
2023-04-27T11:07:12.434Z,62.90
2023-04-27T11:09:40.731Z,63.40
2023-04-27T11:12:09.082Z,63.30
2023-04-27T11:14:37.022Z,62.80
2023-04-27T11:17:05.198Z,58.20
2023-04-27T11:19:32.959Z,65.00
2023-04-27T11:22:04.799Z,57.50
2023-04-27T11:24:32.824Z,65.90
2023-04-27T11:27:00.391Z,59.70
2023-04-27T11:29:38.691Z,62.10
2023-04-27T11:32:06.305Z,62.00
2023-04-27T11:34:34.532Z,59.20
2023-04-27T11:39:38.858Z,60.40
2023-04-27T11:42:28.597Z,60.00
2023-04-27T11:45:01.966Z,62.20
2023-04-27T11:47:31.176Z,65.20
2023-04-27T11:50:00.915Z,65.50
2023-04-27T11:52:30.528Z,60.00
2023-04-27T11:54:58.622Z,59.30
2023-04-27T11:57:27.354Z,63.50
2023-04-27T11:59:56.197Z,59.20
2023-04-27T12:02:23.992Z,61.90
2023-04-27T12:04:52.290Z,59.80
2023-04-27T12:07:20.340Z,63.20
2023-04-27T12:09:47.850Z,62.50
2023-04-27T12:12:17.152Z,63.40
2023-04-27T12:14:45.551Z,62.30
2023-04-27T12:17:13.063Z,59.90
2023-04-27T12:19:40.602Z,65.40
2023-04-27T12:22:08.557Z,61.60
2023-04-27T12:24:37.299Z,61.20
2023-04-27T12:27:05.524Z,67.80
2023-04-27T12:29:32.861Z,61.90
2023-04-27T12:32:00.530Z,63.70
2023-04-27T12:34:28.734Z,64.40
2023-04-27T12:36:56.456Z,60.20
2023-04-27T12:39:25.578Z,59.20
2023-04-27T12:41:53.978Z,59.20
2023-04-27T12:44:22.021Z,58.40
2023-04-27T12:46:49.549Z,57.90
2023-04-27T12:49:17.591Z,59.90
2023-04-27T12:51:45.777Z,61.70
2023-04-27T12:54:13.229Z,62.10
2023-04-27T12:56:40.857Z,60.20
2023-04-27T12:59:08.020Z,61.90
2023-04-27T13:01:35.370Z,61.20
2023-04-27T13:04:04.197Z,61.80
2023-04-27T13:06:32.356Z,57.40
2023-04-27T13:09:00.251Z,56.20
2023-04-27T13:11:27.595Z,56.50
2023-04-27T13:13:54.731Z,58.20
2023-04-27T13:16:25.107Z,58.60
2023-04-27T13:18:53.773Z,58.30
2023-04-27T13:21:21.539Z,60.30
2023-04-27T13:23:49.418Z,62.30
2023-04-27T13:26:17.359Z,60.90
2023-04-27T13:28:44.486Z,61.30
2023-04-27T13:31:12.050Z,59.80
2023-04-27T13:33:42.105Z,61.50
2023-04-27T13:36:10.665Z,63.20
2023-04-27T13:38:38.025Z,61.40
2023-04-27T13:41:05.678Z,58.90
2023-04-27T13:43:33.337Z,61.10
2023-04-27T13:46:01.676Z,64.10
2023-04-27T13:48:30.486Z,64.00
2023-04-27T13:50:57.938Z,63.90
2023-04-27T13:53:25.993Z,66.50
2023-04-27T13:55:55.467Z,67.30
2023-04-27T13:58:25.738Z,65.70
2023-04-27T14:00:53.783Z,66.10
2023-04-27T14:03:22.000Z,63.90
2023-04-27T14:05:51.659Z,63.50
2023-04-27T14:08:19.115Z,65.00
2023-04-27T14:10:46.554Z,65.40
2023-04-27T14:13:14.354Z,64.40
2023-04-27T14:15:42.052Z,67.60
2023-04-27T14:18:09.569Z,71.10
2023-04-27T14:20:37.974Z,66.70
2023-04-27T14:23:06.460Z,65.10
2023-04-27T14:25:34.668Z,67.70
2023-04-27T14:28:04.317Z,67.50
2023-04-27T14:30:33.216Z,67.70
2023-04-27T14:33:00.797Z,64.30
2023-04-27T14:35:28.602Z,63.80
2023-04-27T14:38:04.630Z,64.30
2023-04-27T14:40:32.589Z,66.50
2023-04-27T14:42:59.877Z,67.40
2023-04-27T14:45:36.623Z,66.90
2023-04-27T14:48:07.629Z,66.60
2023-04-27T14:50:34.837Z,68.10
2023-04-27T14:53:02.496Z,66.30
2023-04-27T14:55:29.765Z,67.70
2023-04-27T14:57:57.206Z,67.70
2023-04-27T15:00:24.452Z,70.30
2023-04-27T15:02:51.898Z,68.70
2023-04-27T15:05:19.140Z,67.20
2023-04-27T15:07:46.559Z,71.10
2023-04-27T15:10:13.993Z,72.50
2023-04-27T15:12:41.172Z,69.60
2023-04-27T15:15:10.496Z,68.90
2023-04-27T15:17:38.200Z,72.10
2023-04-27T15:20:06.376Z,70.70
2023-04-27T15:22:33.861Z,70.50
2023-04-27T15:25:01.143Z,69.90
2023-04-27T15:27:28.640Z,68.50
2023-04-27T15:29:56.024Z,72.60
2023-04-27T15:32:28.036Z,71.10
2023-04-27T15:34:55.669Z,70.50
2023-04-27T15:37:28.672Z,70.80
2023-04-27T15:39:56.950Z,70.00
2023-04-27T15:42:24.445Z,70.30
2023-04-27T15:44:51.846Z,71.20
2023-04-27T15:47:19.811Z,69.30
2023-04-27T15:49:56.778Z,73.90
2023-04-27T15:52:27.379Z,71.30
2023-04-27T15:54:55.227Z,72.90
2023-04-27T15:57:22.668Z,72.80
2023-04-27T15:59:50.011Z,71.30
2023-04-27T16:02:17.730Z,71.00
2023-04-27T16:04:45.035Z,71.40
2023-04-27T16:07:12.818Z,72.70
2023-04-27T16:09:40.125Z,70.60
2023-04-27T16:12:08.196Z,71.10
2023-04-27T16:14:35.407Z,73.70
2023-04-27T16:17:03.370Z,69.10
2023-04-27T16:19:30.858Z,70.20
2023-04-27T16:21:58.671Z,71.00
2023-04-27T16:24:26.171Z,72.50
2023-04-27T16:26:53.626Z,70.50
2023-04-27T16:29:20.905Z,71.60
2023-04-27T16:31:53.262Z,71.20
2023-04-27T16:34:20.582Z,74.20
2023-04-27T16:36:48.677Z,73.50
2023-04-27T16:39:16.451Z,74.50
2023-04-27T16:41:43.808Z,75.10
2023-04-27T16:44:12.948Z,73.60
2023-04-27T16:46:40.100Z,74.40
2023-04-27T16:49:07.625Z,75.10
2023-04-27T16:51:34.969Z,74.20
2023-04-27T16:54:02.778Z,75.20
2023-04-27T16:56:33.044Z,74.70
2023-04-27T16:59:00.644Z,75.00
2023-04-27T17:01:30.075Z,76.00
2023-04-27T17:03:59.232Z,76.50
2023-04-27T17:06:28.365Z,74.50
2023-04-27T17:08:57.038Z,76.30
2023-04-27T17:11:24.572Z,75.90
2023-04-27T17:13:51.804Z,77.50
2023-04-27T17:16:19.788Z,75.60
2023-04-27T17:18:47.435Z,77.10
2023-04-27T17:21:14.684Z,78.80
2023-04-27T17:23:42.041Z,79.40
2023-04-27T17:26:10.019Z,80.40
2023-04-27T17:28:37.076Z,80.60
2023-04-27T17:31:04.227Z,78.80
2023-04-27T17:33:31.258Z,79.60
2023-04-27T17:35:58.369Z,79.70
2023-04-27T17:38:27.123Z,80.30
2023-04-27T17:40:54.258Z,81.20
2023-04-27T17:43:21.314Z,82.40
2023-04-27T17:45:48.404Z,82.30
2023-04-27T17:48:16.310Z,85.10
2023-04-27T17:50:43.738Z,84.20
2023-04-27T17:53:10.907Z,84.50
2023-04-27T17:55:38.018Z,84.70
2023-04-27T17:58:06.593Z,84.20
2023-04-27T18:00:33.789Z,85.40
2023-04-27T18:03:01.268Z,84.90
2023-04-27T18:05:28.535Z,84.70
2023-04-27T18:07:55.551Z,85.90
2023-04-27T18:10:22.838Z,84.80
2023-04-27T18:12:49.957Z,85.00
2023-04-27T18:15:17.062Z,83.90
2023-04-27T18:17:44.172Z,84.00
2023-04-27T18:20:11.799Z,83.40
2023-04-27T18:22:40.139Z,84.10
2023-04-27T18:25:09.436Z,85.00
2023-04-27T18:27:37.891Z,86.30
2023-04-27T18:30:06.350Z,86.60
2023-04-27T18:32:34.954Z,87.30
2023-04-27T18:35:02.959Z,88.10
2023-04-27T18:37:30.751Z,88.80
2023-04-27T18:39:57.829Z,89.50
2023-04-27T18:42:25.188Z,90.40
2023-04-27T18:44:55.371Z,90.20
2023-04-27T18:47:22.531Z,90.30
2023-04-27T18:49:49.614Z,90.30
2023-04-27T18:52:16.711Z,90.80
2023-04-27T18:54:43.963Z,91.00
2023-04-27T18:57:10.995Z,91.50
2023-04-27T18:59:39.616Z,91.00
2023-04-27T19:02:08.825Z,92.00
2023-04-27T19:04:36.333Z,92.40
2023-04-27T19:07:03.770Z,92.80
2023-04-27T19:09:31.556Z,92.60
2023-04-27T19:12:02.776Z,92.70
2023-04-27T19:14:32.604Z,92.80
2023-04-27T19:17:00.353Z,93.70
2023-04-27T19:19:27.946Z,94.40
2023-04-27T19:21:56.017Z,95.60
2023-04-27T19:24:23.443Z,96.30
2023-04-27T19:26:50.778Z,96.90
2023-04-27T19:29:18.368Z,98.30
2023-04-27T19:31:46.187Z,99.50
2023-04-27T19:34:13.311Z,99.90
2023-04-27T19:36:41.201Z,99.90
2023-04-27T19:39:08.523Z,99.90
2023-04-27T19:41:36.029Z,99.70
2023-04-27T19:44:03.253Z,98.40
2023-04-27T19:46:31.559Z,98.60
2023-04-27T19:48:59.128Z,98.20
2023-04-27T19:51:26.720Z,97.70
2023-04-27T19:53:53.880Z,97.40
2023-04-27T19:56:21.401Z,97.90
2023-04-27T19:58:48.680Z,98.60
2023-04-27T20:01:16.181Z,98.80
2023-04-27T20:03:47.241Z,98.70
2023-04-27T20:06:15.985Z,98.70
2023-04-27T20:08:43.158Z,99.90
2023-04-27T20:11:10.440Z,99.90
2023-04-27T20:13:37.481Z,99.90
2023-04-27T20:16:05.429Z,99.90
2023-04-27T20:18:32.992Z,99.90
2023-04-27T20:21:00.565Z,99.90
2023-04-27T20:23:27.894Z,99.90
2023-04-27T20:25:55.359Z,99.90
2023-04-27T20:28:22.461Z,99.90
2023-04-27T20:30:49.764Z,99.80
2023-04-27T20:33:16.877Z,99.90
2023-04-27T20:35:46.663Z,99.90
2023-04-27T20:38:13.762Z,99.90
2023-04-27T20:40:42.130Z,99.90
2023-04-27T20:43:09.701Z,99.90
2023-04-27T20:45:36.907Z,99.90
2023-04-27T20:48:04.526Z,99.90
2023-04-27T20:50:31.627Z,99.90
2023-04-27T20:52:58.633Z,99.90
2023-04-27T20:55:26.130Z,99.90
2023-04-27T20:57:53.201Z,99.90
2023-04-27T21:00:20.748Z,99.90
2023-04-27T21:02:48.471Z,99.90
2023-04-27T21:05:16.066Z,99.90
2023-04-27T21:07:43.271Z,99.90
2023-04-27T21:10:11.971Z,99.90
2023-04-27T21:12:39.220Z,99.90
2023-04-27T21:15:06.977Z,99.90
2023-04-27T21:17:34.265Z,99.90
2023-04-27T21:20:02.084Z,99.90
2023-04-27T21:22:29.413Z,99.90
2023-04-27T21:24:56.422Z,99.90
2023-04-27T21:27:25.253Z,99.90
2023-04-27T21:29:53.333Z,99.90
2023-04-27T21:32:20.908Z,99.90
2023-04-27T21:34:48.390Z,99.90
2023-04-27T21:37:16.131Z,99.90
2023-04-27T21:39:43.379Z,99.90
2023-04-27T21:42:10.893Z,99.90
2023-04-27T21:44:38.289Z,99.90
2023-04-27T21:47:05.735Z,99.90
2023-04-27T21:49:32.843Z,99.90
2023-04-27T21:52:00.277Z,99.90
2023-04-27T21:54:27.540Z,99.90
2023-04-27T21:56:54.770Z,99.90
2023-04-27T21:59:22.426Z,99.90
2023-04-27T22:01:49.997Z,99.90
2023-04-27T22:04:17.358Z,99.90
2023-04-27T22:06:44.768Z,99.90
2023-04-27T22:09:12.527Z,99.90
2023-04-27T22:11:40.195Z,99.90
2023-04-27T22:14:07.345Z,99.90
2023-04-27T22:16:35.017Z,99.90
2023-04-27T22:19:02.217Z,99.90
2023-04-27T22:21:29.390Z,99.90
2023-04-27T22:23:56.791Z,99.90
2023-04-27T22:26:24.105Z,99.90
2023-04-27T22:28:51.492Z,99.90
2023-04-27T22:31:18.610Z,99.90
2023-04-27T22:33:46.088Z,99.90
2023-04-27T22:36:13.269Z,99.90
2023-04-27T22:38:40.895Z,99.90
2023-04-27T22:41:08.029Z,99.90
2023-04-27T22:43:35.423Z,99.90
2023-04-27T22:46:02.488Z,99.90
2023-04-27T22:48:29.727Z,99.90
2023-04-27T22:50:56.764Z,99.90
2023-04-27T22:53:23.856Z,99.90
2023-04-27T22:55:51.249Z,99.90
2023-04-27T22:58:18.439Z,99.90
2023-04-27T23:00:46.112Z,99.90
2023-04-27T23:03:13.508Z,99.90
2023-04-27T23:05:41.285Z,99.90
2023-04-27T23:08:08.326Z,99.90
2023-04-27T23:10:38.900Z,99.90
2023-04-27T23:13:07.310Z,99.90
2023-04-27T23:15:34.620Z,99.90
2023-04-27T23:18:01.968Z,99.90
2023-04-27T23:20:29.310Z,99.90
2023-04-27T23:22:57.093Z,99.90
2023-04-27T23:25:24.573Z,99.90
2023-04-27T23:27:53.278Z,99.90
2023-04-27T23:30:22.112Z,99.90
2023-04-27T23:32:49.440Z,99.90
2023-04-27T23:35:16.625Z,99.90
2023-04-27T23:37:44.404Z,99.90
2023-04-27T23:40:12.360Z,99.90
2023-04-27T23:42:39.519Z,99.90
2023-04-27T23:45:07.301Z,99.90
2023-04-27T23:47:34.559Z,99.90
2023-04-27T23:50:02.452Z,99.90
2023-04-27T23:52:29.677Z,99.90
2023-04-27T23:54:58.118Z,99.90
2023-04-27T23:57:25.365Z,99.90
2023-04-27T23:59:52.520Z,99.90
